sensor_id;sensor_type;location;lat;lon;timestamp;temperature;humidity
26613;DHT22;14248;57.652;11.908;2023-04-24T06:06:29;10.20;99.90
26613;DHT22;14248;57.652;11.908;2023-04-24T06:08:55;10.30;99.90
26613;DHT22;14248;57.652;11.908;2023-04-24T06:11:22;10.30;99.90
26613;DHT22;14248;57.652;11.908;2023-04-24T06:53:06;10.40;99.90
26613;DHT22;14248;57.652;11.908;2023-04-24T06:55:32;11.60;99.90
26613;DHT22;14248;57.652;11.908;2023-04-24T06:57:58;11.70;99.90
26613;DHT22;14248;57.652;11.908;2023-04-24T07:00:24;11.80;99.90
26613;DHT22;14248;57.652;11.908;2023-04-24T07:02:50;11.90;99.90
26613;DHT22;14248;57.652;11.908;2023-04-24T07:05:16;11.90;99.90
26613;DHT22;14248;57.652;11.908;2023-04-24T07:07:46;11.90;99.90
26613;DHT22;14248;57.652;11.908;2023-04-24T07:10:12;11.80;99.90
26613;DHT22;14248;57.652;11.908;2023-04-24T07:12:38;11.80;99.90
26613;DHT22;14248;57.652;11.908;2023-04-24T07:15:05;11.70;99.90
26613;DHT22;14248;57.652;11.908;2023-04-24T07:17:31;11.70;99.90
26613;DHT22;14248;57.652;11.908;2023-04-24T07:19:56;11.70;99.90
26613;DHT22;14248;57.652;11.908;2023-04-24T09:55:18;11.60;99.90
26613;DHT22;14248;57.652;11.908;2023-04-24T09:57:51;12.10;99.90
26613;DHT22;14248;57.652;11.908;2023-04-24T10:00:25;12.00;99.90
26613;DHT22;14248;57.652;11.908;2023-04-24T10:03:03;11.90;99.90
26613;DHT22;14248;57.652;11.908;2023-04-24T10:08:02;11.80;99.90
26613;DHT22;14248;57.652;11.908;2023-04-24T10:25:22;11.70;99.90
26613;DHT22;14248;57.652;11.908;2023-04-24T10:30:17;11.90;99.90
26613;DHT22;14248;57.652;11.908;2023-04-24T10:32:43;12.40;99.90
26613;DHT22;14248;57.652;11.908;2023-04-24T10:42:40;12.60;99.90
26613;DHT22;14248;57.652;11.908;2023-04-24T10:50:44;13.80;99.90
26613;DHT22;14248;57.652;11.908;2023-04-24T10:53:18;14.40;99.90
26613;DHT22;14248;57.652;11.908;2023-04-24T10:55:51;14.50;99.90
26613;DHT22;14248;57.652;11.908;2023-04-24T10:58:24;14.40;99.90
26613;DHT22;14248;57.652;11.908;2023-04-24T11:01:00;14.30;99.90
26613;DHT22;14248;57.652;11.908;2023-04-24T11:03:27;14.30;99.90
26613;DHT22;14248;57.652;11.908;2023-04-24T11:06:00;14.20;99.90
26613;DHT22;14248;57.652;11.908;2023-04-24T11:08:31;14.10;99.90
26613;DHT22;14248;57.652;11.908;2023-04-24T11:11:15;14.10;99.90
26613;DHT22;14248;57.652;11.908;2023-04-24T11:16:28;14.30;99.90
26613;DHT22;14248;57.652;11.908;2023-04-24T11:19:09;14.40;99.90
26613;DHT22;14248;57.652;11.908;2023-04-24T11:21:41;14.50;99.90
26613;DHT22;14248;57.652;11.908;2023-04-24T11:24:27;14.40;99.90
26613;DHT22;14248;57.652;11.908;2023-04-24T11:34:55;14.70;99.90
26613;DHT22;14248;57.652;11.908;2023-04-24T11:37:23;14.70;99.90
26613;DHT22;14248;57.652;11.908;2023-04-24T11:40:02;14.60;99.90
26613;DHT22;14248;57.652;11.908;2023-04-24T11:42:37;14.60;99.90
26613;DHT22;14248;57.652;11.908;2023-04-24T11:47:37;14.50;99.90
26613;DHT22;14248;57.652;11.908;2023-04-24T11:50:05;14.50;99.90
26613;DHT22;14248;57.652;11.908;2023-04-24T11:52:32;14.70;99.90
26613;DHT22;14248;57.652;11.908;2023-04-24T11:54:59;14.90;99.90
26613;DHT22;14248;57.652;11.908;2023-04-24T11:57:26;14.90;99.90
26613;DHT22;14248;57.652;11.908;2023-04-24T11:59:54;14.90;99.90
26613;DHT22;14248;57.652;11.908;2023-04-24T12:02:23;14.90;99.90
26613;DHT22;14248;57.652;11.908;2023-04-24T12:04:50;14.90;99.90
26613;DHT22;14248;57.652;11.908;2023-04-24T12:07:18;15.00;99.90
26613;DHT22;14248;57.652;11.908;2023-04-24T12:10:03;15.00;99.90
26613;DHT22;14248;57.652;11.908;2023-04-24T12:12:31;15.00;99.90
26613;DHT22;14248;57.652;11.908;2023-04-24T12:14:57;14.90;99.90
26613;DHT22;14248;57.652;11.908;2023-04-24T12:57:09;14.80;99.90
26613;DHT22;14248;57.652;11.908;2023-04-24T12:59:35;13.90;99.90
26613;DHT22;14248;57.652;11.908;2023-04-24T13:02:00;13.90;99.90
26613;DHT22;14248;57.652;11.908;2023-04-24T13:04:26;13.90;99.90
26613;DHT22;14248;57.652;11.908;2023-04-24T13:06:52;13.80;99.90
26613;DHT22;14248;57.652;11.908;2023-04-24T13:09:17;13.80;99.90
26613;DHT22;14248;57.652;11.908;2023-04-24T13:11:43;13.80;99.90
26613;DHT22;14248;57.652;11.908;2023-04-24T18:51:52;13.80;99.90
26613;DHT22;14248;57.652;11.908;2023-04-24T18:54:18;12.80;99.90
26613;DHT22;14248;57.652;11.908;2023-04-24T18:56:44;12.70;99.90
26613;DHT22;14248;57.652;11.908;2023-04-24T18:59:10;12.70;99.90
26613;DHT22;14248;57.652;11.908;2023-04-24T19:01:36;12.70;99.90
26613;DHT22;14248;57.652;11.908;2023-04-24T19:04:03;12.70;99.90
26613;DHT22;14248;57.652;11.908;2023-04-24T19:06:29;12.70;99.90
26613;DHT22;14248;57.652;11.908;2023-04-24T19:08:56;12.70;99.90
26613;DHT22;14248;57.652;11.908;2023-04-24T19:11:21;12.70;99.90
26613;DHT22;14248;57.652;11.908;2023-04-24T19:13:47;12.70;99.90
26613;DHT22;14248;57.652;11.908;2023-04-24T19:16:13;12.60;99.90
26613;DHT22;14248;57.652;11.908;2023-04-24T19:18:38;12.60;99.90
26613;DHT22;14248;57.652;11.908;2023-04-24T19:21:04;12.60;99.90
26613;DHT22;14248;57.652;11.908;2023-04-24T19:23:30;12.60;99.90
26613;DHT22;14248;57.652;11.908;2023-04-24T19:26:05;12.60;99.90
26613;DHT22;14248;57.652;11.908;2023-04-24T19:28:31;12.60;99.90
26613;DHT22;14248;57.652;11.908;2023-04-24T19:30:57;12.60;99.90
26613;DHT22;14248;57.652;11.908;2023-04-24T19:33:24;12.60;99.90
26613;DHT22;14248;57.652;11.908;2023-04-24T19:35:50;12.60;99.90
26613;DHT22;14248;57.652;11.908;2023-04-24T19:38:15;12.60;99.90
26613;DHT22;14248;57.652;11.908;2023-04-24T19:40:41;12.60;99.90
26613;DHT22;14248;57.652;11.908;2023-04-24T19:43:07;12.60;99.90
26613;DHT22;14248;57.652;11.908;2023-04-24T19:45:32;12.60;99.90
26613;DHT22;14248;57.652;11.908;2023-04-24T19:48:06;12.60;99.90
26613;DHT22;14248;57.652;11.908;2023-04-24T19:50:32;12.60;99.90
26613;DHT22;14248;57.652;11.908;2023-04-24T19:53:01;12.60;99.90
26613;DHT22;14248;57.652;11.908;2023-04-24T19:55:37;12.60;99.90
26613;DHT22;14248;57.652;11.908;2023-04-24T19:58:06;12.60;99.90
26613;DHT22;14248;57.652;11.908;2023-04-24T20:00:32;12.60;99.90
26613;DHT22;14248;57.652;11.908;2023-04-24T20:02:59;12.60;99.90
26613;DHT22;14248;57.652;11.908;2023-04-24T20:05:26;12.70;99.90
26613;DHT22;14248;57.652;11.908;2023-04-24T20:07:53;12.70;99.90
26613;DHT22;14248;57.652;11.908;2023-04-24T20:10:18;12.70;99.90
26613;DHT22;14248;57.652;11.908;2023-04-24T20:12:45;12.60;99.90
26613;DHT22;14248;57.652;11.908;2023-04-24T20:15:11;12.60;99.90
26613;DHT22;14248;57.652;11.908;2023-04-24T20:17:37;12.60;99.90
26613;DHT22;14248;57.652;11.908;2023-04-24T20:20:03;12.50;99.90
26613;DHT22;14248;57.652;11.908;2023-04-24T20:22:29;12.50;99.90
26613;DHT22;14248;57.652;11.908;2023-04-24T20:25:00;12.50;99.90
26613;DHT22;14248;57.652;11.908;2023-04-24T20:27:26;12.50;99.90
26613;DHT22;14248;57.652;11.908;2023-04-24T20:29:53;12.50;99.90
26613;DHT22;14248;57.652;11.908;2023-04-24T20:32:20;12.40;99.90
26613;DHT22;14248;57.652;11.908;2023-04-24T20:34:46;12.40;99.90
26613;DHT22;14248;57.652;11.908;2023-04-24T20:37:11;12.40;99.90
26613;DHT22;14248;57.652;11.908;2023-04-24T20:39:37;12.40;99.90
26613;DHT22;14248;57.652;11.908;2023-04-24T20:42:03;12.30;99.90
26613;DHT22;14248;57.652;11.908;2023-04-24T20:44:29;12.30;99.90
26613;DHT22;14248;57.652;11.908;2023-04-24T20:46:55;12.30;99.90
26613;DHT22;14248;57.652;11.908;2023-04-24T20:49:20;12.30;99.90
26613;DHT22;14248;57.652;11.908;2023-04-24T20:51:46;12.20;99.90
26613;DHT22;14248;57.652;11.908;2023-04-24T20:54:12;12.20;99.90
26613;DHT22;14248;57.652;11.908;2023-04-24T20:56:37;12.20;99.90
26613;DHT22;14248;57.652;11.908;2023-04-24T20:59:03;12.20;99.90
26613;DHT22;14248;57.652;11.908;2023-04-24T21:01:29;12.20;99.90
26613;DHT22;14248;57.652;11.908;2023-04-24T21:03:58;12.10;99.90
26613;DHT22;14248;57.652;11.908;2023-04-24T21:08:49;12.10;99.90
